Terminal Aerodrome Forecast
Issued by NWS Jackson, MS

Home | Current Version | Previous Version | Text Only | Print | Product List | Glossary On
Versions: 1 2 3 4 5 6 7 8 9 10 11 12 13 14 15 16
000
FTUS44 KMEG 022338
TAFTUP
TAF
KTUP 022338Z 0300/0324 05003KT P6SM BKN150 BKN250
     FM031600 07008KT P6SM VCSH BKN060 OVC100
     FM032100 07008KT P6SM -RA SCT015 OVC035
     FM032300 07008KT 5SM -RA BR SCT009 OVC015=

USA.gov is the U.S. government's official web portal to all federal, state and local government web resources and services.